Accueil
METAR-TAF:

METAR-TAF

Aéroports :

Aéroport de Biskra - Mohamed Khider

Biskra, Algérie

latitude: 34-48N, longitude: 005-44E, altitude: 87 m

Observation

Le bulletin a été fait il y a 1 heure et 9 minutes, à 09:00 UTC
Vent 13 kt de nord-ouest
Température 29°C
Humidité 25%
Pression 1014 hPa
Visibilité 10 km ou plus
pas de nuages en-dessous de 1500 mètres et pas de cumulonimbus.

METAR: DAUB 140900Z 32013KT CAVOK 29/07 Q1014

Heure: 11:09 (10:09 UTC)

Prévision

Le bulletin a été fait il y a 5 heures et 9 minutes, à 05:00 UTC
Prévision valable du 14 à 06 UTC au 15 à 06 UTC
Vent 8 kt de nord/nord-ouest
Visibilité 10 km ou plus
pas de nuages en-dessous de 1500 mètres et pas de cumulonimbus.
Temporairement
du 14 à 13 UTC au 14 à 20 UTC
Vent 20 kt de nord/nord-ouest

TAF: DAUB 140500Z 1406/1506 34008KT CAVOK TEMPO 1413/1420 34020KT

Observations et prévisions météorologiques de plus de 4000 aéroports (messages METAR et TAF).

Les stations disponibles sont représentées par des disques jaunes et rouges sur la carte.

Passer la souris dessus pour voir le nom de la station.

Cliquer dessus pour voir les observations et prévisions météorologiques.

Pour changer de carte: cliquez sur les boutons verts avec une croix noire pour zoomer, sur le bouton vert avec un tiret pour effectuer un zoom arrière, ou sur les flèches vertes pour les cartes adjacentes.


METAR-TAF: